Time;durP1;ratioP1;P1;durP2;ratioP2;P2;SDS_P1;SDS_P2;PMS_P1;PMS_P2;Temp;Humidity;BMP_temperature;BMP_pressure;BME280_temperature;BME280_humidity;BME280_pressure;Samples;Min_cycle;Max_cycle;Signal;HPM_P1;HPM_P2
2021/07/01 00:00:43;;;;;;;27.97;17.83;;;17.20;99.90;;;;;;5109387;28;20672;-72
2021/07/01 00:03:11;;;;;;;25.13;15.70;;;17.20;99.90;;;;;;5109623;28;20213;-72
2021/07/01 00:05:37;;;;;;;20.60;13.50;;;17.10;99.90;;;;;;5109484;28;20202;-72
2021/07/01 00:08:04;;;;;;;17.47;14.17;;;17.10;99.90;;;;;;5109593;28;20255;-72
2021/07/01 00:10:31;;;;;;;19.30;14.13;;;17.10;99.90;;;;;;5108655;28;20248;-72
2021/07/01 00:12:58;;;;;;;20.53;13.10;;;17.20;99.90;;;;;;5109570;28;20210;-72
2021/07/01 00:15:28;;;;;;;22.00;13.53;;;17.10;99.90;;;;;;5109692;28;20238;-71
2021/07/01 00:17:56;;;;;;;17.50;13.27;;;17.20;99.90;;;;;;5109358;27;20230;-72
2021/07/01 00:20:24;;;;;;;17.57;13.10;;;17.20;99.90;;;;;;5109329;28;20266;-72
2021/07/01 00:22:52;;;;;;;16.17;12.23;;;17.10;99.90;;;;;;5109249;28;20230;-72
2021/07/01 00:25:19;;;;;;;19.47;12.47;;;17.10;99.90;;;;;;5109263;28;20203;-72
2021/07/01 00:27:46;;;;;;;17.13;12.20;;;17.10;99.90;;;;;;5109392;28;20206;-71
2021/07/01 00:30:15;;;;;;;15.80;11.10;;;17.10;99.90;;;;;;5109345;28;20259;-72
2021/07/01 00:32:42;;;;;;;14.33;10.60;;;17.10;99.90;;;;;;5109186;28;20206;-72
2021/07/01 00:35:11;;;;;;;18.27;11.83;;;17.10;99.90;;;;;;5109245;28;20606;-72
2021/07/01 00:37:38;;;;;;;15.20;11.70;;;17.10;99.90;;;;;;5108766;28;20734;-72
2021/07/01 00:40:08;;;;;;;15.67;11.30;;;17.10;99.90;;;;;;5109198;28;20205;-73
2021/07/01 00:42:35;;;;;;;17.07;10.83;;;17.00;99.90;;;;;;5108901;28;20216;-72
2021/07/01 00:45:02;;;;;;;12.97;10.60;;;17.00;99.90;;;;;;5109061;28;20254;-72
2021/07/01 00:47:28;;;;;;;13.03;10.43;;;17.00;99.90;;;;;;5108735;28;20632;-72
2021/07/01 00:49:55;;;;;;;14.67;10.07;;;17.00;99.90;;;;;;5108874;28;20233;-72
2021/07/01 00:52:23;;;;;;;12.87;10.87;;;17.00;99.90;;;;;;5108713;28;20241;-72
2021/07/01 00:54:49;;;;;;;17.77;10.63;;;17.00;99.90;;;;;;5108807;28;20661;-73
2021/07/01 00:57:17;;;;;;;17.13;10.53;;;17.00;99.90;;;;;;5108513;28;20234;-73
2021/07/01 00:59:43;;;;;;;15.20;11.43;;;17.00;99.90;;;;;;5108359;28;20669;-72
2021/07/01 01:02:10;;;;;;;16.43;12.67;;;17.00;99.90;;;;;;5108671;28;20202;-72
2021/07/01 01:04:36;;;;;;;21.90;14.17;;;17.00;99.90;;;;;;5108823;28;20287;-72
2021/07/01 01:07:04;;;;;;;21.20;14.53;;;17.10;99.90;;;;;;5108700;28;20203;-72
2021/07/01 01:09:32;;;;;;;21.20;14.77;;;17.00;99.90;;;;;;5108310;28;20675;-72
2021/07/01 01:11:59;;;;;;;26.73;15.53;;;17.00;99.90;;;;;;5108623;28;20287;-72
2021/07/01 01:14:25;;;;;;;19.60;14.00;;;17.00;99.90;;;;;;5100426;28;20207;-72
2021/07/01 01:16:52;;;;;;;20.13;13.60;;;17.00;99.90;;;;;;5088287;28;20202;-72
2021/07/01 01:19:19;;;;;;;21.27;13.73;;;16.90;99.90;;;;;;5088332;28;20260;-72
2021/07/01 01:21:48;;;;;;;18.43;13.37;;;16.90;99.90;;;;;;5089452;28;20253;-72
2021/07/01 01:24:14;;;;;;;18.40;13.57;;;17.00;99.90;;;;;;5092517;28;20293;-73
2021/07/01 01:26:41;;;;;;;20.80;14.13;;;17.00;99.90;;;;;;5092164;28;20287;-72
2021/07/01 01:29:08;;;;;;;19.80;13.27;;;17.00;99.90;;;;;;5092019;28;20712;-72
2021/07/01 01:31:37;;;;;;;19.73;12.80;;;17.00;99.90;;;;;;5091657;28;20660;-72
2021/07/01 01:34:04;;;;;;;16.50;12.03;;;16.90;99.90;;;;;;5092332;28;20226;-72
2021/07/01 01:36:31;;;;;;;16.77;12.27;;;17.00;99.90;;;;;;5092188;28;20198;-72
2021/07/01 01:38:59;;;;;;;18.73;12.37;;;16.90;99.90;;;;;;5092081;28;20542;-72
2021/07/01 01:41:26;;;;;;;15.47;11.87;;;16.90;99.90;;;;;;5091712;28;20259;-72
2021/07/01 01:43:53;;;;;;;14.53;11.47;;;16.90;99.90;;;;;;5092241;28;20607;-72
2021/07/01 01:46:20;;;;;;;17.57;11.30;;;16.90;99.90;;;;;;5091891;28;20676;-73
2021/07/01 01:48:50;;;;;;;15.50;10.83;;;16.90;99.90;;;;;;5092011;28;20210;-72
2021/07/01 01:51:17;;;;;;;14.93;10.90;;;16.90;99.90;;;;;;5091963;28;20223;-72
2021/07/01 01:53:43;;;;;;;14.17;11.07;;;16.90;99.90;;;;;;5091830;28;20234;-72
2021/07/01 01:56:11;;;;;;;18.00;11.70;;;16.90;99.90;;;;;;5091882;28;20205;-72
2021/07/01 01:58:38;;;;;;;18.00;10.93;;;16.90;99.90;;;;;;5091730;28;20287;-73
2021/07/01 02:01:05;;;;;;;14.17;11.43;;;16.80;99.90;;;;;;5091791;28;20234;-72
2021/07/01 02:03:31;;;;;;;14.80;11.33;;;16.80;99.90;;;;;;5091579;28;20204;-72
2021/07/01 02:05:58;;;;;;;13.03;9.87;;;16.80;99.90;;;;;;5091660;28;20206;-72
2021/07/01 02:08:24;;;;;;;13.73;9.17;;;16.80;99.90;;;;;;5091035;28;20242;-72
2021/07/01 02:10:51;;;;;;;10.97;8.80;;;16.80;99.90;;;;;;5091173;28;20774;-72
2021/07/01 02:13:19;;;;;;;10.33;8.93;;;16.80;99.90;;;;;;5091539;28;20206;-72
2021/07/01 02:15:45;;;;;;;10.70;8.53;;;16.80;99.90;;;;;;5091554;28;20287;-73
2021/07/01 02:18:12;;;;;;;9.43;8.23;;;16.80;99.90;;;;;;5091473;28;20207;-72
2021/07/01 02:20:39;;;;;;;9.87;7.97;;;16.80;99.90;;;;;;5091087;28;20199;-73
2021/07/01 02:23:05;;;;;;;10.13;6.97;;;16.80;99.90;;;;;;5091279;28;20223;-72
2021/07/01 02:25:33;;;;;;;7.87;7.10;;;16.70;99.90;;;;;;5091256;28;20699;-73
2021/07/01 02:27:59;;;;;;;7.70;6.77;;;16.70;99.90;;;;;;5091360;28;20210;-72
2021/07/01 02:30:27;;;;;;;7.90;6.80;;;16.70;99.90;;;;;;5091059;28;20300;-73
2021/07/01 02:32:54;;;;;;;6.47;5.67;;;16.70;99.90;;;;;;5090057;28;20661;-73
2021/07/01 02:35:20;;;;;;;5.57;5.07;;;16.70;99.90;;;;;;5091044;28;20210;-72
2021/07/01 02:37:47;;;;;;;5.47;4.67;;;16.60;99.90;;;;;;5090706;28;20219;-72
2021/07/01 02:40:15;;;;;;;5.10;4.60;;;16.50;99.90;;;;;;5090925;28;20644;-72
2021/07/01 02:42:43;;;;;;;5.00;4.50;;;16.50;99.90;;;;;;5090780;28;20820;-72
2021/07/01 02:45:11;;;;;;;6.77;4.00;;;16.50;99.90;;;;;;5090586;28;20801;-72
2021/07/01 02:47:39;;;;;;;6.80;4.27;;;16.50;99.90;;;;;;5093400;28;20219;-74
2021/07/01 02:50:08;;;;;;;4.80;4.20;;;16.50;99.90;;;;;;5102437;28;20296;-72
2021/07/01 02:52:35;;;;;;;5.03;4.60;;;16.50;99.90;;;;;;5099322;28;20659;-71
2021/07/01 02:55:01;;;;;;;6.73;4.77;;;16.50;99.90;;;;;;5110857;28;20259;-73
2021/07/01 02:57:28;;;;;;;6.80;4.60;;;16.50;99.90;;;;;;5110702;28;20234;-73
2021/07/01 02:59:55;;;;;;;4.97;4.50;;;16.50;99.90;;;;;;5088706;28;20239;-73
2021/07/01 03:02:21;;;;;;;6.07;5.00;;;16.50;99.90;;;;;;5087991;28;20280;-72
2021/07/01 03:04:49;;;;;;;6.43;4.47;;;16.50;99.90;;;;;;5088091;28;20622;-73
2021/07/01 03:07:16;;;;;;;5.13;4.70;;;16.50;99.90;;;;;;5088212;28;20206;-76
2021/07/01 03:09:42;;;;;;;7.10;5.43;;;16.50;99.90;;;;;;5088391;28;20748;-76
2021/07/01 03:12:09;;;;;;;4.60;4.30;;;16.60;99.90;;;;;;5088540;28;20237;-73
2021/07/01 03:14:36;;;;;;;4.97;3.90;;;16.60;99.90;;;;;;5088505;28;20218;-73
2021/07/01 03:17:03;;;;;;;3.73;3.40;;;16.50;99.90;;;;;;5088236;28;20206;-73
2021/07/01 03:19:29;;;;;;;6.33;3.70;;;16.40;99.90;;;;;;5088158;28;20211;-73
2021/07/01 03:21:57;;;;;;;3.60;3.30;;;16.40;99.90;;;;;;5099850;27;20230;-72
2021/07/01 03:24:24;;;;;;;4.30;3.90;;;16.40;99.90;;;;;;5105067;28;20212;-73
2021/07/01 03:26:50;;;;;;;3.93;3.63;;;16.40;99.90;;;;;;5108371;28;20221;-73
2021/07/01 03:29:17;;;;;;;3.23;3.00;;;16.40;99.90;;;;;;5108041;28;20862;-73
2021/07/01 03:31:44;;;;;;;3.77;3.23;;;16.30;99.90;;;;;;5107772;28;20262;-73
2021/07/01 03:34:10;;;;;;;3.30;3.10;;;16.30;99.90;;;;;;5100789;28;20199;-72
2021/07/01 03:36:39;;;;;;;3.23;2.63;;;16.20;99.90;;;;;;5100660;28;20276;-72
2021/07/01 03:39:10;;;;;;;3.07;2.87;;;16.20;99.90;;;;;;5106698;28;20213;-73
2021/07/01 03:41:37;;;;;;;2.80;2.60;;;16.10;99.90;;;;;;5096619;28;20268;-73
2021/07/01 03:44:04;;;;;;;2.90;2.70;;;16.10;99.90;;;;;;5088526;28;20600;-73
2021/07/01 03:46:31;;;;;;;3.10;2.90;;;16.00;99.90;;;;;;5088395;28;20222;-73
2021/07/01 03:48:58;;;;;;;2.90;2.73;;;16.00;99.90;;;;;;5088935;28;20202;-73
2021/07/01 03:51:24;;;;;;;2.93;2.73;;;16.10;99.90;;;;;;5088744;28;20230;-73
2021/07/01 03:53:51;;;;;;;2.80;2.53;;;16.10;99.90;;;;;;5089133;28;20242;-73
2021/07/01 03:56:19;;;;;;;4.10;3.13;;;16.10;99.90;;;;;;5089293;28;20239;-73
2021/07/01 03:58:45;;;;;;;2.80;2.70;;;16.10;99.90;;;;;;5089487;28;20195;-73
2021/07/01 04:01:12;;;;;;;2.83;2.63;;;16.00;99.90;;;;;;5089456;28;20230;-72
2021/07/01 04:03:38;;;;;;;2.80;2.60;;;16.10;99.90;;;;;;5089267;28;20237;-73
2021/07/01 04:06:05;;;;;;;2.53;2.43;;;16.10;99.90;;;;;;5089370;28;20230;-73
2021/07/01 04:08:36;;;;;;;2.97;2.77;;;16.00;99.90;;;;;;5089177;28;20233;-73
2021/07/01 04:11:05;;;;;;;3.03;2.83;;;16.00;99.90;;;;;;5089293;28;20199;-73
2021/07/01 04:13:33;;;;;;;2.77;2.57;;;16.10;99.90;;;;;;5089059;28;20275;-73
2021/07/01 04:15:59;;;;;;;2.93;2.73;;;16.10;99.90;;;;;;5089350;28;20245;-72
2021/07/01 04:18:26;;;;;;;3.20;3.00;;;16.10;99.90;;;;;;5088704;28;20575;-72
2021/07/01 04:20:52;;;;;;;2.73;2.53;;;16.00;99.90;;;;;;5089113;28;20211;-72
2021/07/01 04:23:19;;;;;;;2.63;2.20;;;16.00;99.90;;;;;;5088622;28;20771;-72
2021/07/01 04:25:50;;;;;;;2.87;2.60;;;16.10;99.90;;;;;;5088906;28;20207;-73
2021/07/01 04:28:17;;;;;;;2.20;2.10;;;16.10;99.90;;;;;;5088648;28;20713;-73
2021/07/01 04:30:44;;;;;;;2.13;2.00;;;16.20;99.90;;;;;;5088465;28;20678;-73
2021/07/01 04:33:11;;;;;;;2.17;1.50;;;16.00;99.90;;;;;;5088660;28;20291;-73
2021/07/01 04:35:38;;;;;;;1.40;1.40;;;15.90;99.90;;;;;;5088731;28;20206;-73
2021/07/01 04:38:04;;;;;;;2.10;2.00;;;15.90;99.90;;;;;;5088816;28;20248;-72
2021/07/01 04:40:31;;;;;;;1.10;1.10;;;15.80;99.90;;;;;;5088495;28;20206;-72
2021/07/01 04:42:57;;;;;;;1.87;1.77;;;15.80;99.90;;;;;;5088923;28;20214;-72
2021/07/01 04:45:24;;;;;;;1.43;1.23;;;15.80;99.90;;;;;;5088781;28;20206;-72
2021/07/01 04:47:52;;;;;;;1.20;1.20;;;15.80;99.90;;;;;;5088495;28;20236;-73
2021/07/01 04:50:19;;;;;;;1.57;1.47;;;15.80;99.90;;;;;;5088753;28;20256;-73
2021/07/01 04:52:45;;;;;;;1.37;1.20;;;15.70;99.90;;;;;;5088392;28;20258;-72
2021/07/01 04:55:12;;;;;;;1.30;1.30;;;15.60;99.90;;;;;;5088667;28;20242;-73
2021/07/01 04:57:39;;;;;;;1.00;1.00;;;15.60;99.90;;;;;;5087698;28;20270;-72
2021/07/01 05:00:07;;;;;;;1.30;1.27;;;15.60;99.90;;;;;;5088649;28;20218;-72
2021/07/01 05:02:33;;;;;;;1.50;1.40;;;15.60;99.90;;;;;;5088492;28;20260;-72
2021/07/01 05:05:01;;;;;;;1.53;1.43;;;15.60;99.90;;;;;;5088177;28;20203;-72
2021/07/01 05:07:28;;;;;;;1.90;1.80;;;15.60;99.90;;;;;;5088142;28;20695;-72
2021/07/01 05:09:54;;;;;;;1.20;1.20;;;15.60;99.90;;;;;;5088336;28;20210;-72
2021/07/01 05:12:21;;;;;;;2.43;1.60;;;15.60;99.90;;;;;;5088263;28;20303;-73
2021/07/01 05:14:48;;;;;;;1.63;1.53;;;15.60;99.90;;;;;;5088447;28;20211;-72
2021/07/01 05:17:14;;;;;;;2.03;1.70;;;15.50;99.90;;;;;;5088226;28;20271;-72
2021/07/01 05:19:41;;;;;;;1.83;1.73;;;15.50;99.90;;;;;;5087826;28;20248;-72
2021/07/01 05:22:09;;;;;;;2.03;1.60;;;15.50;99.90;;;;;;5088036;28;20719;-72
2021/07/01 05:24:36;;;;;;;1.90;1.80;;;15.30;99.90;;;;;;5088132;28;20207;-72
2021/07/01 05:27:03;;;;;;;1.73;1.63;;;15.30;99.90;;;;;;5088431;28;20202;-72
2021/07/01 05:29:30;;;;;;;2.57;1.87;;;15.10;99.90;;;;;;5088108;28;20209;-72
2021/07/01 05:31:57;;;;;;;1.70;1.60;;;15.10;99.90;;;;;;5088204;28;20273;-72
2021/07/01 05:34:23;;;;;;;2.47;2.00;;;15.10;99.90;;;;;;5088509;28;20276;-72
2021/07/01 05:36:50;;;;;;;1.67;1.57;;;15.00;99.90;;;;;;5088225;28;20235;-72
2021/07/01 05:39:18;;;;;;;2.70;2.50;;;15.10;99.90;;;;;;5088381;28;20199;-73
2021/07/01 05:41:44;;;;;;;3.87;2.40;;;15.00;99.90;;;;;;5088183;28;20601;-72
2021/07/01 05:44:11;;;;;;;2.57;2.37;;;15.00;99.90;;;;;;5088308;28;20256;-72
2021/07/01 05:46:38;;;;;;;2.30;2.10;;;15.00;99.90;;;;;;5087896;28;20227;-72
2021/07/01 05:49:04;;;;;;;2.70;2.50;;;15.00;99.90;;;;;;5088150;28;20283;-72
2021/07/01 05:51:33;;;;;;;2.93;2.70;;;15.00;99.90;;;;;;5087769;28;20664;-72
2021/07/01 05:54:06;;;;;;;2.50;2.30;;;15.00;99.90;;;;;;5088004;28;20244;-72
2021/07/01 05:56:37;;;;;;;2.97;2.67;;;15.00;99.90;;;;;;5087694;28;20320;-72
2021/07/01 05:59:05;;;;;;;4.43;2.47;;;14.90;99.90;;;;;;5088019;28;20214;-72
2021/07/01 06:01:32;;;;;;;2.43;2.23;;;14.90;99.90;;;;;;5087979;28;20608;-72
2021/07/01 06:03:58;;;;;;;2.60;2.20;;;14.90;99.90;;;;;;5087589;28;20663;-72
2021/07/01 06:06:26;;;;;;;3.17;2.73;;;14.90;99.90;;;;;;5088163;28;20697;-72
2021/07/01 06:08:57;;;;;;;5.77;3.27;;;15.00;99.90;;;;;;5089291;28;20263;-72
2021/07/01 06:11:25;;;;;;;5.30;3.00;;;14.90;99.90;;;;;;5091875;28;20187;-72
2021/07/01 06:13:55;;;;;;;4.57;3.30;;;15.00;99.90;;;;;;5091490;28;20238;-72
2021/07/01 06:16:26;;;;;;;4.97;3.27;;;15.00;99.90;;;;;;5091553;28;20652;-72
2021/07/01 06:18:54;;;;;;;3.23;2.93;;;15.00;99.90;;;;;;5091304;28;20195;-72
2021/07/01 06:21:22;;;;;;;4.40;3.00;;;14.90;99.90;;;;;;5091216;28;20703;-72
2021/07/01 06:23:49;;;;;;;3.43;2.97;;;14.90;99.90;;;;;;5091227;28;20295;-72
2021/07/01 06:26:23;;;;;;;3.63;3.20;;;15.00;99.90;;;;;;5091399;28;20203;-72
2021/07/01 06:28:50;;;;;;;4.67;3.07;;;14.90;99.90;;;;;;5091000;28;20656;-72
2021/07/01 06:31:18;;;;;;;3.87;3.40;;;14.90;99.90;;;;;;5091317;28;20198;-72
2021/07/01 06:33:45;;;;;;;4.07;3.40;;;14.90;99.90;;;;;;5091012;28;20287;-72
2021/07/01 06:36:13;;;;;;;6.70;3.30;;;15.00;99.90;;;;;;5091093;28;20203;-73
2021/07/01 06:38:46;;;;;;;3.93;3.23;;;15.00;99.90;;;;;;5090972;28;20335;-72
2021/07/01 06:41:16;;;;;;;3.77;3.33;;;15.00;99.90;;;;;;5091194;28;20195;-72
2021/07/01 06:43:46;;;;;;;3.50;3.00;;;15.00;99.90;;;;;;5090878;28;20194;-72
2021/07/01 06:46:14;;;;;;;6.30;2.87;;;14.90;99.90;;;;;;5090990;28;20229;-72
2021/07/01 06:48:44;;;;;;;2.93;2.73;;;14.80;99.90;;;;;;5090783;28;20199;-72
2021/07/01 06:51:11;;;;;;;4.83;3.23;;;14.80;99.90;;;;;;5091127;28;20206;-72
2021/07/01 06:53:40;;;;;;;3.70;2.50;;;14.80;99.90;;;;;;5090875;28;20263;-72
2021/07/01 06:56:07;;;;;;;3.43;2.90;;;14.90;99.90;;;;;;5090908;28;20210;-72
2021/07/01 06:58:35;;;;;;;4.00;3.13;;;14.90;99.90;;;;;;5090160;28;20331;-72
2021/07/01 07:01:02;;;;;;;3.33;2.90;;;14.90;99.90;;;;;;5090808;28;20206;-72
2021/07/01 07:03:30;;;;;;;4.70;3.40;;;14.90;99.90;;;;;;5090540;28;20207;-72
2021/07/01 07:06:01;;;;;;;5.13;3.73;;;14.90;99.90;;;;;;5090389;28;20203;-72
2021/07/01 07:08:27;;;;;;;4.37;3.77;;;14.90;99.90;;;;;;5090465;28;20220;-72
2021/07/01 07:10:54;;;;;;;4.83;3.67;;;14.90;99.90;;;;;;5090327;28;20210;-72
2021/07/01 07:13:24;;;;;;;5.67;3.50;;;14.90;99.90;;;;;;5090216;28;20231;-72
2021/07/01 07:15:51;;;;;;;4.33;3.17;;;15.00;99.90;;;;;;5090387;28;20195;-72
2021/07/01 07:18:21;;;;;;;5.17;3.20;;;14.90;99.90;;;;;;5090075;28;20676;-72
2021/07/01 07:20:53;;;;;;;5.47;3.47;;;14.90;99.90;;;;;;5089763;28;20642;-72
2021/07/01 07:23:28;;;;;;;3.03;2.63;;;15.00;99.90;;;;;;5089971;28;20663;-72
2021/07/01 07:25:55;;;;;;;3.07;2.87;;;14.90;99.90;;;;;;5089878;28;20614;-72
2021/07/01 07:28:24;;;;;;;2.67;2.47;;;14.90;99.90;;;;;;5090071;28;20207;-72
2021/07/01 07:30:52;;;;;;;2.50;2.30;;;14.90;99.90;;;;;;5089972;28;20238;-72
2021/07/01 07:33:23;;;;;;;3.40;2.40;;;14.90;99.90;;;;;;5089542;28;20763;-72
2021/07/01 07:35:50;;;;;;;3.07;2.77;;;14.90;99.90;;;;;;5090195;28;20195;-72
2021/07/01 07:38:19;;;;;;;3.30;3.00;;;15.00;99.90;;;;;;5089851;28;20240;-72
2021/07/01 07:40:49;;;;;;;3.37;3.00;;;15.00;99.90;;;;;;5089661;28;20293;-72
2021/07/01 07:43:18;;;;;;;4.27;3.10;;;15.00;99.90;;;;;;5089981;28;20202;-72
2021/07/01 07:45:46;;;;;;;3.70;3.40;;;15.00;99.90;;;;;;5089571;28;20214;-72
2021/07/01 07:48:13;;;;;;;3.70;3.30;;;15.00;99.90;;;;;;5089437;28;20660;-72
2021/07/01 07:50:40;;;;;;;3.50;3.20;;;15.00;99.90;;;;;;5089599;28;20207;-72
2021/07/01 07:53:10;;;;;;;2.80;2.60;;;15.00;99.90;;;;;;5089633;28;20262;-72
2021/07/01 07:55:37;;;;;;;2.90;2.70;;;15.00;99.90;;;;;;5089678;28;20252;-72
2021/07/01 07:58:07;;;;;;;2.87;2.67;;;15.00;99.90;;;;;;5089263;28;21184;-72
2021/07/01 08:00:35;;;;;;;4.40;4.00;;;15.00;99.90;;;;;;5089351;28;20214;-72
2021/07/01 08:03:06;;;;;;;2.60;2.40;;;15.10;99.90;;;;;;5089375;28;20719;-73
2021/07/01 08:05:33;;;;;;;2.60;2.40;;;15.00;99.90;;;;;;5089587;28;20211;-72
2021/07/01 08:08:01;;;;;;;2.73;2.40;;;15.00;99.90;;;;;;5089467;28;20383;-72
2021/07/01 08:10:31;;;;;;;2.50;2.30;;;15.00;99.90;;;;;;5089401;28;20207;-72
2021/07/01 08:13:02;;;;;;;2.20;2.10;;;15.00;99.90;;;;;;5089280;28;20599;-72
2021/07/01 08:15:31;;;;;;;2.37;2.23;;;14.90;99.90;;;;;;5089528;28;20299;-72
2021/07/01 08:17:58;;;;;;;2.23;2.07;;;14.80;99.90;;;;;;5089221;28;20202;-72
2021/07/01 08:20:25;;;;;;;3.73;2.13;;;14.80;99.90;;;;;;5089196;28;20676;-72
2021/07/01 08:22:55;;;;;;;2.00;1.90;;;14.80;99.90;;;;;;5088996;28;20231;-72
2021/07/01 08:25:24;;;;;;;2.10;2.00;;;14.80;99.90;;;;;;5089404;28;20622;-72
2021/07/01 08:27:52;;;;;;;2.00;1.90;;;14.80;99.90;;;;;;5088747;28;20260;-72
2021/07/01 08:30:21;;;;;;;2.20;2.10;;;14.80;99.90;;;;;;5088527;28;20753;-72
2021/07/01 08:32:53;;;;;;;2.30;2.20;;;15.00;99.90;;;;;;5088170;28;20607;-72
2021/07/01 08:35:23;;;;;;;2.43;2.33;;;15.00;99.90;;;;;;5088769;28;20706;-73
2021/07/01 08:37:51;;;;;;;2.57;2.37;;;15.00;99.90;;;;;;5088908;28;20202;-72
2021/07/01 08:40:20;;;;;;;2.07;1.97;;;15.00;99.90;;;;;;5088871;28;20206;-72
2021/07/01 08:42:49;;;;;;;2.47;2.37;;;15.10;99.90;;;;;;5088629;28;20207;-72
2021/07/01 08:45:17;;;;;;;2.10;2.00;;;15.00;99.90;;;;;;5088839;28;20203;-72
2021/07/01 08:47:44;;;;;;;2.50;2.10;;;15.00;99.90;;;;;;5088363;28;20234;-72
2021/07/01 08:50:15;;;;;;;2.60;2.10;;;15.00;99.90;;;;;;5088724;28;20214;-72
2021/07/01 08:52:55;;;;;;;2.40;2.30;;;15.00;99.90;;;;;;5088625;28;20199;-72
2021/07/01 08:55:26;;;;;;;1.80;1.70;;;15.00;99.90;;;;;;5088416;28;20684;-72
2021/07/01 08:57:55;;;;;;;2.30;2.20;;;15.00;99.90;;;;;;5088131;28;20274;-72
2021/07/01 09:00:22;;;;;;;1.97;1.87;;;14.90;99.90;;;;;;5088654;28;20206;-72
2021/07/01 09:03:02;;;;;;;2.30;2.20;;;14.90;99.90;;;;;;5088367;28;20202;-72
2021/07/01 09:05:32;;;;;;;2.40;2.30;;;14.90;99.90;;;;;;5088348;28;20190;-72
2021/07/01 09:08:01;;;;;;;2.37;2.27;;;14.90;99.90;;;;;;5088491;28;20211;-72
2021/07/01 09:10:30;;;;;;;2.70;2.30;;;14.90;99.90;;;;;;5088496;28;20203;-72
2021/07/01 09:12:58;;;;;;;2.27;2.13;;;14.90;99.90;;;;;;5088015;28;20206;-72
2021/07/01 09:15:27;;;;;;;2.47;2.37;;;14.90;99.90;;;;;;5088425;28;20202;-72
2021/07/01 09:17:54;;;;;;;2.67;2.57;;;14.90;99.90;;;;;;5088196;28;20210;-72
2021/07/01 09:20:22;;;;;;;2.90;2.70;;;14.80;99.90;;;;;;5088177;28;20199;-72
2021/07/01 09:22:53;;;;;;;4.63;2.50;;;14.80;99.90;;;;;;5088187;28;20371;-72
2021/07/01 09:25:21;;;;;;;2.90;2.80;;;14.90;99.90;;;;;;5088080;28;20623;-72
2021/07/01 09:27:49;;;;;;;3.00;2.80;;;14.80;99.90;;;;;;5088255;28;20546;-72
2021/07/01 09:30:19;;;;;;;3.37;3.10;;;14.90;99.90;;;;;;5088254;28;20245;-72
2021/07/01 09:32:46;;;;;;;3.13;2.93;;;14.90;99.90;;;;;;5088076;28;20207;-72
2021/07/01 09:35:14;;;;;;;3.37;3.17;;;14.90;99.90;;;;;;5088436;28;20300;-72
2021/07/01 09:37:42;;;;;;;4.33;2.97;;;14.90;99.90;;;;;;5088225;28;20206;-72
2021/07/01 09:40:14;;;;;;;3.00;2.90;;;14.90;99.90;;;;;;5088377;28;20199;-72
2021/07/01 09:42:41;;;;;;;3.80;3.50;;;14.90;99.90;;;;;;5089274;28;20191;-72
2021/07/01 09:45:10;;;;;;;3.63;3.40;;;14.90;99.90;;;;;;5092130;28;20275;-72
2021/07/01 09:47:39;;;;;;;4.47;4.17;;;14.90;99.90;;;;;;5091913;28;20222;-72
2021/07/01 09:50:09;;;;;;;4.57;4.17;;;14.90;99.90;;;;;;5091578;28;20798;-72
2021/07/01 09:52:41;;;;;;;4.10;3.73;;;14.90;99.90;;;;;;5091950;28;20242;-72
2021/07/01 09:55:09;;;;;;;3.93;3.73;;;14.90;99.90;;;;;;5091979;28;20635;-72
2021/07/01 09:57:38;;;;;;;3.87;3.67;;;14.80;99.90;;;;;;5091665;28;20230;-72
2021/07/01 10:00:08;;;;;;;4.53;4.23;;;14.90;99.90;;;;;;5091581;28;20609;-72
2021/07/01 10:02:34;;;;;;;4.50;4.20;;;14.80;99.90;;;;;;5091780;28;20210;-72
2021/07/01 10:05:04;;;;;;;4.30;4.03;;;14.80;99.90;;;;;;5091695;28;20202;-72
2021/07/01 10:07:30;;;;;;;4.10;3.90;;;14.80;99.90;;;;;;5091708;28;20222;-72
2021/07/01 10:10:10;;;;;;;4.30;4.10;;;14.80;99.90;;;;;;5091265;28;20576;-72
2021/07/01 10:12:49;;;;;;;4.30;4.10;;;14.80;99.90;;;;;;5091658;28;20248;-72
2021/07/01 10:15:25;;;;;;;4.60;4.40;;;14.80;99.90;;;;;;5091508;28;20218;-72
2021/07/01 10:18:03;;;;;;;4.87;4.57;;;14.80;99.90;;;;;;5091369;28;20202;-72
2021/07/01 10:20:33;;;;;;;5.30;4.90;;;14.90;99.90;;;;;;5091186;28;20694;-72
2021/07/01 10:23:00;;;;;;;4.77;4.37;;;14.80;99.90;;;;;;5091197;28;20202;-72
2021/07/01 10:25:30;;;;;;;5.10;4.80;;;14.90;99.90;;;;;;5091312;28;20260;-72
2021/07/01 10:28:09;;;;;;;4.80;4.50;;;14.90;99.90;;;;;;5091188;28;20285;-72
2021/07/01 10:30:36;;;;;;;4.97;4.67;;;14.90;99.90;;;;;;5091340;28;20197;-72
2021/07/01 10:33:03;;;;;;;4.80;4.60;;;14.90;99.90;;;;;;5091023;28;20252;-72
2021/07/01 10:35:33;;;;;;;4.70;4.40;;;14.90;99.90;;;;;;5091166;28;20565;-72
2021/07/01 10:38:06;;;;;;;4.93;4.63;;;15.00;99.90;;;;;;5090989;28;20210;-72
2021/07/01 10:40:34;;;;;;;4.70;4.40;;;15.00;99.90;;;;;;5091133;28;20199;-72
2021/07/01 10:43:04;;;;;;;5.40;5.00;;;15.00;99.90;;;;;;5091001;28;20237;-72
2021/07/01 10:45:31;;;;;;;5.03;4.67;;;15.10;99.90;;;;;;5090745;28;20664;-72
2021/07/01 10:48:13;;;;;;;5.00;4.70;;;15.10;99.90;;;;;;5090676;28;20206;-72
2021/07/01 10:50:39;;;;;;;4.70;4.43;;;15.10;99.90;;;;;;5091152;28;20218;-73
2021/07/01 10:53:26;;;;;;;5.30;4.90;;;15.10;99.90;;;;;;5090773;28;20250;-72
2021/07/01 10:55:53;;;;;;;4.97;4.50;;;15.10;99.90;;;;;;5090146;28;20202;-73
2021/07/01 10:58:21;;;;;;;5.30;4.93;;;15.10;99.90;;;;;;5090442;28;20299;-73
2021/07/01 11:00:48;;;;;;;5.10;4.80;;;15.10;99.90;;;;;;5090663;28;20199;-72
2021/07/01 11:03:21;;;;;;;6.33;5.13;;;15.10;99.90;;;;;;5090700;28;20215;-72
2021/07/01 11:05:48;;;;;;;5.17;4.83;;;15.20;99.90;;;;;;5090717;28;20267;-72
2021/07/01 11:08:24;;;;;;;6.07;5.47;;;15.20;99.90;;;;;;5090715;28;20207;-72
2021/07/01 11:10:52;;;;;;;5.50;5.17;;;15.20;99.90;;;;;;5090623;28;20222;-72
2021/07/01 11:13:24;;;;;;;6.37;5.93;;;15.20;99.90;;;;;;5090699;28;20211;-72
2021/07/01 11:16:02;;;;;;;7.87;5.83;;;15.20;99.90;;;;;;5090549;28;20202;-72
2021/07/01 11:18:33;;;;;;;6.17;5.67;;;15.20;99.90;;;;;;5090419;28;20282;-72
2021/07/01 11:21:10;;;;;;;6.63;6.13;;;15.30;99.90;;;;;;5090285;28;20306;-72
2021/07/01 11:23:37;;;;;;;6.27;5.80;;;15.20;99.90;;;;;;5090412;28;20194;-72
2021/07/01 11:26:04;;;;;;;6.87;6.23;;;15.20;99.90;;;;;;5090138;28;20202;-72
2021/07/01 11:28:32;;;;;;;6.70;6.20;;;15.30;99.90;;;;;;5090255;28;20255;-72
2021/07/01 11:31:01;;;;;;;7.10;6.60;;;15.30;99.90;;;;;;5090001;28;20203;-72
2021/07/01 11:33:29;;;;;;;7.03;6.53;;;15.30;99.90;;;;;;5090068;28;20210;-72
2021/07/01 11:36:10;;;;;;;6.53;6.13;;;15.30;99.90;;;;;;5089947;28;20214;-72
2021/07/01 11:38:36;;;;;;;6.87;6.30;;;15.30;99.90;;;;;;5089967;28;20225;-72
2021/07/01 11:41:04;;;;;;;7.37;6.60;;;15.30;99.90;;;;;;5089534;28;20694;-72
2021/07/01 11:43:33;;;;;;;7.70;7.10;;;15.30;99.90;;;;;;5090112;28;20599;-72
2021/07/01 11:46:00;;;;;;;7.57;6.90;;;15.30;99.90;;;;;;5089674;28;20227;-72
2021/07/01 11:48:29;;;;;;;7.50;7.00;;;15.30;99.90;;;;;;5089571;28;20211;-72
2021/07/01 11:50:58;;;;;;;7.83;7.13;;;15.30;99.90;;;;;;5089394;28;20658;-72
2021/07/01 11:53:26;;;;;;;7.73;7.13;;;15.30;99.90;;;;;;5089753;28;20268;-72
2021/07/01 11:55:57;;;;;;;7.70;7.03;;;15.40;99.90;;;;;;5089806;28;20230;-72
2021/07/01 11:58:23;;;;;;;8.07;7.40;;;15.40;99.90;;;;;;5089321;28;20618;-72
2021/07/01 12:00:53;;;;;;;7.53;7.00;;;15.40;99.90;;;;;;5089545;28;20342;-72
2021/07/01 12:03:20;;;;;;;8.53;7.90;;;15.40;99.90;;;;;;5089497;28;20203;-72
2021/07/01 12:05:49;;;;;;;8.17;7.57;;;15.50;99.90;;;;;;5089676;28;20236;-72
2021/07/01 12:08:17;;;;;;;7.97;7.37;;;15.50;99.90;;;;;;5089447;28;20306;-72
2021/07/01 12:10:44;;;;;;;8.33;7.73;;;15.50;99.90;;;;;;5089436;28;20565;-72
2021/07/01 12:13:45;;;;;;;7.93;7.40;;;15.50;99.90;;;;;;5088920;28;20668;-72
2021/07/01 12:16:15;;;;;;;7.70;7.00;;;15.50;99.90;;;;;;5086699;28;20256;-73
2021/07/01 12:18:49;;;;;;;8.00;7.40;;;15.50;99.90;;;;;;5089395;28;20199;-72
2021/07/01 12:21:17;;;;;;;8.23;7.43;;;15.50;99.90;;;;;;5089083;28;20230;-73
2021/07/01 12:23:45;;;;;;;7.83;7.13;;;15.50;99.90;;;;;;5089147;28;20203;-72
2021/07/01 12:26:30;;;;;;;8.97;8.17;;;15.50;99.90;;;;;;5088956;28;20565;-72
2021/07/01 12:28:57;;;;;;;9.00;8.20;;;15.50;99.90;;;;;;5088942;28;20595;-73
2021/07/01 12:31:26;;;;;;;8.37;7.70;;;15.50;99.90;;;;;;5089069;28;20207;-72
2021/07/01 12:33:56;;;;;;;8.47;7.57;;;15.60;99.90;;;;;;5088735;28;20226;-73
2021/07/01 12:36:28;;;;;;;8.17;7.47;;;15.60;99.90;;;;;;5088883;28;20222;-73
2021/07/01 12:39:22;;;;;;;8.23;7.53;;;15.60;99.90;;;;;;5088742;28;20198;-73
2021/07/01 12:41:52;;;;;;;8.70;7.90;;;15.70;99.90;;;;;;5088842;28;20291;-72
2021/07/01 12:44:20;;;;;;;7.40;6.80;;;15.70;99.90;;;;;;5088995;28;20259;-72
2021/07/01 12:47:09;;;;;;;7.30;6.70;;;15.70;99.90;;;;;;5088577;28;20223;-72
2021/07/01 12:49:52;;;;;;;7.83;7.23;;;15.70;99.90;;;;;;5088471;28;20225;-73